Time;durP1;ratioP1;P1;durP2;ratioP2;P2;SDS_P1;SDS_P2;PMS_P1;PMS_P2;Temp;Humidity;BMP_temperature;BMP_pressure;BME280_temperature;BME280_humidity;BME280_pressure;Samples;Min_cycle;Max_cycle;Signal;HPM_P1;HPM_P2
2021/08/31 00:00:15;;;;;;;9.03;6.43;;;;;;;13.20;100.00;96431.31;5070629;28;20128;-80
2021/08/31 00:02:41;;;;;;;9.00;6.83;;;;;;;13.20;100.00;96433.94;5061370;28;20072;-79
2021/08/31 00:05:10;;;;;;;10.32;7.68;;;;;;;13.14;100.00;96437.25;5066062;28;20031;-80
2021/08/31 00:07:35;;;;;;;10.57;7.43;;;;;;;13.11;100.00;96442.88;5073130;28;20035;-80
2021/08/31 00:10:02;;;;;;;8.90;6.67;;;;;;;13.04;100.00;96440.09;5064111;28;20040;-79
2021/08/31 00:12:27;;;;;;;11.00;7.73;;;;;;;13.10;100.00;96442.06;5057917;28;20248;-80
2021/08/31 00:14:53;;;;;;;10.07;7.18;;;;;;;13.13;100.00;96444.34;5053630;28;20046;-80
2021/08/31 00:17:19;;;;;;;9.47;6.97;;;;;;;13.13;100.00;96449.63;5079263;28;20529;-80
2021/08/31 00:19:45;;;;;;;12.50;7.93;;;;;;;13.15;100.00;96450.31;5063287;28;20455;-80
2021/08/31 00:22:10;;;;;;;11.40;8.07;;;;;;;13.08;100.00;96445.88;5074302;28;20035;-79
2021/08/31 00:24:36;;;;;;;11.18;8.00;;;;;;;13.10;100.00;96447.34;5071477;28;20557;-79
2021/08/31 00:27:02;;;;;;;10.97;7.33;;;;;;;13.11;100.00;96456.06;5078929;28;20050;-80
2021/08/31 00:29:28;;;;;;;12.23;8.47;;;;;;;13.08;100.00;96451.97;5058224;28;20047;-80
2021/08/31 00:31:54;;;;;;;10.48;7.93;;;;;;;13.15;100.00;96455.59;5076040;28;20131;-80
2021/08/31 00:34:20;;;;;;;11.97;8.33;;;;;;;13.16;100.00;96453.75;5076496;28;20105;-80
2021/08/31 00:36:46;;;;;;;10.52;7.57;;;;;;;13.16;100.00;96456.41;5076569;28;20028;-80
2021/08/31 00:39:12;;;;;;;11.13;7.60;;;;;;;13.20;100.00;96452.44;5056347;28;20139;-79
2021/08/31 00:41:38;;;;;;;10.60;7.77;;;;;;;13.18;100.00;96451.78;5075261;28;20075;-80
2021/08/31 00:44:04;;;;;;;9.43;7.20;;;;;;;13.18;100.00;96457.88;5077125;28;20028;-80
2021/08/31 00:46:30;;;;;;;10.52;7.57;;;;;;;13.20;100.00;96450.59;5058861;28;20909;-80
2021/08/31 00:48:56;;;;;;;11.27;7.60;;;;;;;13.18;100.00;96462.34;5060378;28;20028;-78
2021/08/31 00:51:26;;;;;;;12.50;7.20;;;;;;;13.12;100.00;96457.75;5063381;28;20028;-80
2021/08/31 00:53:53;;;;;;;12.23;7.60;;;;;;;13.13;100.00;96462.84;5067752;28;20119;-80
2021/08/31 00:56:19;;;;;;;11.17;7.73;;;;;;;13.14;100.00;96461.03;5070665;28;20016;-79
2021/08/31 00:58:46;;;;;;;10.00;7.25;;;;;;;13.18;100.00;96462.34;5076441;28;20033;-78
2021/08/31 01:01:11;;;;;;;9.50;7.40;;;;;;;13.19;100.00;96464.00;5075345;28;20302;-80
2021/08/31 01:03:39;;;;;;;10.20;7.32;;;;;;;13.18;100.00;96462.34;5058577;28;20027;-78
2021/08/31 01:06:06;;;;;;;9.63;7.13;;;;;;;13.18;100.00;96468.44;5054979;28;20036;-81
2021/08/31 01:08:32;;;;;;;10.10;7.00;;;;;;;13.14;100.00;96463.66;5065432;28;20037;-79
2021/08/31 01:10:59;;;;;;;11.77;7.13;;;;;;;13.09;100.00;96471.28;5077478;28;20031;-81
2021/08/31 01:13:28;;;;;;;11.27;7.37;;;;;;;13.10;100.00;96471.09;5054674;28;20029;-81
2021/08/31 01:15:54;;;;;;;10.07;6.83;;;;;;;13.10;100.00;96468.47;5081414;28;20024;-81
2021/08/31 01:18:23;;;;;;;9.27;6.90;;;;;;;13.14;100.00;96467.13;5076720;28;20056;-78
2021/08/31 01:20:50;;;;;;;10.63;6.88;;;;;;;13.12;100.00;96466.47;5075694;28;20084;-80
2021/08/31 01:23:16;;;;;;;12.40;7.93;;;;;;;13.11;100.00;96466.63;5062384;28;20524;-81
2021/08/31 01:25:43;;;;;;;9.68;7.25;;;;;;;13.09;100.00;96466.00;5059394;28;20135;-80
2021/08/31 01:28:16;;;;;;;9.80;7.45;;;;;;;13.09;100.00;96466.00;5076004;28;20119;-79
2021/08/31 01:30:44;;;;;;;9.43;6.70;;;;;;;13.11;100.00;96464.00;5059401;28;20036;-80
2021/08/31 01:33:10;;;;;;;10.73;6.83;;;;;;;13.11;100.00;96466.63;5064213;28;20025;-79
2021/08/31 01:35:36;;;;;;;9.85;8.07;;;;;;;13.13;100.00;96472.59;5066458;28;20093;-80
2021/08/31 01:38:02;;;;;;;10.80;7.10;;;;;;;13.07;100.00;96473.25;5061692;28;20024;-78
2021/08/31 01:40:27;;;;;;;11.68;7.05;;;;;;;13.03;100.00;96472.78;5060827;28;20028;-78
2021/08/31 01:42:53;;;;;;;9.33;6.93;;;;;;;13.03;100.00;96477.22;5063566;28;20024;-80
2021/08/31 01:45:19;;;;;;;9.70;6.43;;;;;;;13.01;100.00;96473.91;5077290;28;20032;-80
2021/08/31 01:47:45;;;;;;;9.63;6.15;;;;;;;13.03;100.00;96472.78;5074967;28;20111;-80
2021/08/31 01:50:11;;;;;;;7.93;5.50;;;;;;;12.96;100.00;96477.06;5091376;28;20536;-80
2021/08/31 01:52:37;;;;;;;8.60;6.03;;;;;;;13.01;100.00;96473.91;5072173;28;20039;-80
2021/08/31 01:55:06;;;;;;;8.95;6.35;;;;;;;13.02;100.00;96472.94;5081590;28;20040;-80
2021/08/31 01:57:32;;;;;;;9.73;6.10;;;;;;;13.01;100.00;96466.84;5078957;28;20031;-79
2021/08/31 01:59:58;;;;;;;8.18;5.65;;;;;;;13.01;100.00;96468.66;5066062;28;20037;-80
2021/08/31 02:02:24;;;;;;;8.20;5.60;;;;;;;12.97;100.00;96473.44;5059796;28;20037;-80
2021/08/31 02:04:50;;;;;;;10.27;5.53;;;;;;;12.97;100.00;96476.06;5067141;28;20127;-80
2021/08/31 02:07:15;;;;;;;7.27;5.20;;;;;;;13.02;100.00;96475.59;5061398;28;20051;-80
2021/08/31 02:09:41;;;;;;;7.93;5.07;;;;;;;12.93;100.00;96486.16;5056170;28;20033;-79
2021/08/31 02:12:07;;;;;;;7.90;5.00;;;;;;;12.94;100.00;96477.25;5080518;28;20396;-79
2021/08/31 02:14:33;;;;;;;8.93;6.17;;;;;;;12.97;100.00;96481.34;5082723;28;20032;-79
2021/08/31 02:16:59;;;;;;;10.03;6.17;;;;;;;12.92;100.00;96473.94;5065227;28;20140;-79
2021/08/31 02:19:25;;;;;;;8.85;5.45;;;;;;;12.91;100.00;96474.09;5069943;28;20562;-79
2021/08/31 02:21:50;;;;;;;8.40;5.90;;;;;;;12.89;100.00;96479.56;5051742;28;20553;-80
2021/08/31 02:24:16;;;;;;;10.77;6.45;;;;;;;12.92;100.00;96473.94;5063979;28;20440;-80
2021/08/31 02:26:42;;;;;;;9.53;7.00;;;;;;;12.90;100.00;96480.38;5053624;28;20025;-80
2021/08/31 02:29:08;;;;;;;10.03;6.23;;;;;;;12.93;100.00;96478.22;5060755;28;20029;-78
2021/08/31 02:31:33;;;;;;;9.90;7.40;;;;;;;12.97;100.00;96486.63;5089505;28;20024;-79
2021/08/31 02:33:59;;;;;;;9.98;6.85;;;;;;;12.98;100.00;96483.03;5082931;28;20032;-79
2021/08/31 02:36:25;;;;;;;9.55;6.78;;;;;;;12.97;100.00;96481.34;5067737;28;20738;-80
2021/08/31 02:38:51;;;;;;;10.33;6.83;;;;;;;12.95;100.00;96480.72;5063167;28;20036;-80
2021/08/31 02:41:16;;;;;;;10.80;6.95;;;;;;;12.93;100.00;96480.88;5072425;28;20028;-79
2021/08/31 02:43:42;;;;;;;10.35;6.07;;;;;;;12.95;100.00;96488.63;5059625;28;20507;-79
2021/08/31 02:46:08;;;;;;;10.90;7.33;;;;;;;12.96;100.00;96485.00;5078061;28;20029;-79
2021/08/31 02:48:33;;;;;;;10.40;6.73;;;;;;;12.96;100.00;96483.19;5079796;28;20075;-80
2021/08/31 02:51:00;;;;;;;10.10;6.40;;;;;;;12.90;100.00;96481.19;5080894;28;20096;-78
2021/08/31 02:53:26;;;;;;;10.27;6.30;;;;;;;12.90;100.00;96475.94;5087837;28;20062;-80
2021/08/31 02:55:51;;;;;;;10.07;6.45;;;;;;;12.93;100.00;96474.78;5082510;28;20039;-80
2021/08/31 02:58:17;;;;;;;10.00;6.57;;;;;;;12.95;100.00;96473.63;5075121;28;20039;-79
2021/08/31 03:00:52;;;;;;;11.10;7.43;;;;;;;13.00;100.00;96480.19;5086719;28;20037;-80
2021/08/31 03:03:18;;;;;;;10.57;6.87;;;;;;;13.03;100.00;96474.59;5057219;28;20020;-80
2021/08/31 03:05:45;;;;;;;10.47;6.83;;;;;;;13.00;100.00;96477.56;5070531;28;20402;-80
2021/08/31 03:08:10;;;;;;;12.43;7.93;;;;;;;12.96;100.00;96482.34;5084392;28;20066;-79
2021/08/31 03:10:37;;;;;;;10.93;7.30;;;;;;;12.94;100.00;96485.19;5079376;28;20020;-80
2021/08/31 03:13:03;;;;;;;11.27;7.30;;;;;;;12.90;100.00;96483.84;5080419;28;20028;-80
2021/08/31 03:15:28;;;;;;;10.77;6.93;;;;;;;12.87;100.00;96493.91;5053190;28;20029;-80
2021/08/31 03:17:54;;;;;;;9.35;7.03;;;;;;;12.87;100.00;96488.63;5082853;28;20035;-80
2021/08/31 03:20:20;;;;;;;10.63;6.93;;;;;;;12.91;100.00;96498.72;5060635;28;20081;-79
2021/08/31 03:22:46;;;;;;;11.43;8.10;;;;;;;12.90;100.00;96486.47;5056558;28;20044;-80
2021/08/31 03:25:12;;;;;;;16.37;11.53;;;;;;;12.92;100.00;96494.25;5077482;28;20028;-80
2021/08/31 03:27:37;;;;;;;13.40;8.65;;;;;;;12.94;100.00;96494.88;5064009;28;20094;-79
2021/08/31 03:30:06;;;;;;;12.07;7.77;;;;;;;12.89;100.00;96495.41;5081788;28;20084;-80
2021/08/31 03:32:32;;;;;;;11.20;7.33;;;;;;;12.86;100.00;96494.91;5054539;28;20029;-80
2021/08/31 03:34:58;;;;;;;10.63;7.67;;;;;;;12.81;100.00;96498.06;5072865;28;20024;-80
2021/08/31 03:37:24;;;;;;;9.83;6.93;;;;;;;12.85;100.00;96504.66;5083372;28;20064;-79
2021/08/31 03:39:49;;;;;;;10.63;7.23;;;;;;;12.84;100.00;96497.69;5060830;28;20033;-80
2021/08/31 03:42:15;;;;;;;9.77;6.70;;;;;;;12.87;100.00;96507.09;5068203;28;20028;-81
2021/08/31 03:44:41;;;;;;;12.70;7.63;;;;;;;12.84;100.00;96505.63;5072932;28;20037;-80
2021/08/31 03:47:06;;;;;;;9.83;6.90;;;;;;;12.84;100.00;96508.25;5064031;28;20047;-80
2021/08/31 03:49:32;;;;;;;9.10;7.33;;;;;;;12.82;100.00;96504.97;5076654;28;20032;-80
2021/08/31 03:51:58;;;;;;;9.68;7.00;;;;;;;12.84;100.00;96505.63;5061097;28;20067;-80
2021/08/31 03:54:23;;;;;;;10.57;7.27;;;;;;;12.87;100.00;96507.94;5069324;28;20048;-78
2021/08/31 03:56:49;;;;;;;8.97;6.93;;;;;;;12.88;100.00;96514.06;5088936;28;20063;-80
2021/08/31 03:59:15;;;;;;;12.03;7.03;;;;;;;12.87;100.00;96504.47;5078778;28;20029;-80
2021/08/31 04:01:40;;;;;;;10.50;7.13;;;;;;;12.82;100.00;96510.25;5073482;28;20058;-80
2021/08/31 04:04:06;;;;;;;11.73;6.57;;;;;;;12.85;100.00;96519.66;5074150;28;20036;-80
2021/08/31 04:06:32;;;;;;;10.07;7.53;;;;;;;12.85;100.00;96520.50;5075210;28;20087;-80
2021/08/31 04:08:57;;;;;;;10.47;7.13;;;;;;;12.78;100.00;96527.44;5062082;28;20039;-80
2021/08/31 04:11:23;;;;;;;10.27;7.23;;;;;;;12.82;100.00;96531.38;5072834;28;20434;-81
2021/08/31 04:13:48;;;;;;;10.70;7.70;;;;;;;12.82;100.00;96530.56;5073174;28;20032;-80
2021/08/31 04:16:14;;;;;;;10.10;6.18;;;;;;;12.82;100.00;96534.00;5063040;28;20044;-80
2021/08/31 04:18:40;;;;;;;10.33;6.87;;;;;;;12.85;100.00;96530.22;5070728;28;20660;-80
2021/08/31 04:21:06;;;;;;;10.17;6.77;;;;;;;12.93;100.00;96538.94;5084871;28;20040;-79
2021/08/31 04:23:31;;;;;;;11.87;7.63;;;;;;;12.94;100.00;96537.97;5061718;28;20029;-80
2021/08/31 04:25:57;;;;;;;11.63;7.22;;;;;;;12.95;100.00;96536.97;5072185;28;20071;-79
2021/08/31 04:28:23;;;;;;;11.10;7.97;;;;;;;12.90;100.00;96543.72;5078212;28;20081;-80
2021/08/31 04:30:48;;;;;;;11.17;7.37;;;;;;;12.86;100.00;96543.25;5076532;28;20063;-79
2021/08/31 04:33:14;;;;;;;14.40;11.50;;;;;;;12.82;100.00;96549.03;5083781;28;20039;-77
2021/08/31 04:35:40;;;;;;;22.67;18.00;;;;;;;12.81;100.00;96544.72;5078480;28;20463;-80
2021/08/31 04:38:05;;;;;;;14.33;9.23;;;;;;;12.80;100.00;96549.19;5064234;28;20127;-80
2021/08/31 04:40:32;;;;;;;11.90;8.05;;;;;;;12.79;100.00;96544.06;5058005;28;20124;-80
2021/08/31 04:42:57;;;;;;;11.13;8.67;;;;;;;12.74;100.00;96552.47;5078062;28;20082;-79
2021/08/31 04:45:23;;;;;;;10.47;7.67;;;;;;;12.79;100.00;96555.44;5077896;28;20041;-79
2021/08/31 04:47:49;;;;;;;12.97;8.47;;;;;;;12.81;100.00;96550.00;5070050;28;20028;-79
2021/08/31 04:50:15;;;;;;;12.47;8.00;;;;;;;12.86;100.00;96560.91;5056958;28;20063;-80
2021/08/31 04:52:40;;;;;;;11.10;7.87;;;;;;;12.83;100.00;96559.41;5066931;28;20044;-77
2021/08/31 04:55:06;;;;;;;13.75;8.95;;;;;;;12.82;100.00;96560.41;5061699;28;20102;-80
2021/08/31 04:57:32;;;;;;;12.73;9.43;;;;;;;12.74;100.00;96561.25;5061824;28;20028;-79
2021/08/31 04:59:58;;;;;;;11.40;8.85;;;;;;;12.80;100.00;96570.28;5070650;28;20089;-80
2021/08/31 05:02:24;;;;;;;13.03;8.70;;;;;;;12.81;100.00;96560.56;5076158;28;20066;-79
2021/08/31 05:04:51;;;;;;;14.67;8.87;;;;;;;12.80;100.00;96570.28;5078095;28;20470;-80
2021/08/31 05:07:16;;;;;;;14.37;9.13;;;;;;;12.82;100.00;96562.22;5074394;28;20059;-78
2021/08/31 05:09:43;;;;;;;15.00;9.10;;;;;;;12.87;100.00;96559.91;5074631;28;20032;-79
2021/08/31 05:12:09;;;;;;;14.05;8.45;;;;;;;12.86;100.00;96561.72;5064059;28;20024;-80
2021/08/31 05:14:35;;;;;;;12.03;8.70;;;;;;;12.81;100.00;96563.19;5050778;28;20036;-80
2021/08/31 05:17:01;;;;;;;13.43;9.38;;;;;;;12.83;100.00;96564.69;5055730;28;20662;-79
2021/08/31 05:19:27;;;;;;;12.35;8.93;;;;;;;12.80;100.00;96566.84;5074722;28;20036;-79
2021/08/31 05:21:53;;;;;;;16.87;10.63;;;;;;;12.80;100.00;96569.47;5064859;28;20367;-78
2021/08/31 05:24:19;;;;;;;16.57;13.43;;;;;;;12.79;100.00;96575.75;5069355;28;20036;-79
2021/08/31 05:26:44;;;;;;;12.30;9.73;;;;;;;12.83;100.00;96579.69;5070735;28;20493;-79
2021/08/31 05:29:10;;;;;;;13.40;9.07;;;;;;;12.83;100.00;96579.69;5052758;28;20498;-77
2021/08/31 05:31:36;;;;;;;12.77;8.47;;;;;;;12.85;100.00;96580.38;5071015;28;20050;-78
2021/08/31 05:34:01;;;;;;;11.03;7.90;;;;;;;12.85;100.00;96586.47;5061051;28;20029;-78
2021/08/31 05:36:27;;;;;;;15.30;8.10;;;;;;;12.91;100.00;96585.81;5075891;28;20030;-79
2021/08/31 05:38:54;;;;;;;11.10;8.37;;;;;;;12.89;100.00;96581.69;5059627;28;20032;-79
2021/08/31 05:41:19;;;;;;;12.13;7.40;;;;;;;12.98;100.00;96583.34;5077216;28;20024;-78
2021/08/31 05:43:45;;;;;;;10.17;7.10;;;;;;;12.93;100.00;96581.19;5058702;28;20032;-79
2021/08/31 05:46:11;;;;;;;10.90;7.70;;;;;;;12.95;100.00;96591.59;5067919;28;20043;-78
2021/08/31 05:48:36;;;;;;;10.40;7.10;;;;;;;12.89;100.00;96590.44;5067334;28;20064;-79
2021/08/31 05:51:03;;;;;;;12.73;8.75;;;;;;;12.94;100.00;96598.69;5072595;28;20757;-78
2021/08/31 05:53:29;;;;;;;9.80;7.13;;;;;;;12.95;100.00;96594.22;5076865;28;20040;-78
2021/08/31 05:55:55;;;;;;;10.10;7.50;;;;;;;12.91;100.00;96598.16;5076711;28;20028;-78
2021/08/31 05:58:21;;;;;;;11.95;7.57;;;;;;;12.90;100.00;96599.97;5078171;28;20090;-78
2021/08/31 06:00:47;;;;;;;13.80;8.80;;;;;;;12.94;100.00;96600.47;5075034;28;20031;-78
2021/08/31 06:03:12;;;;;;;10.57;7.43;;;;;;;12.94;100.00;96603.97;5083379;28;20029;-78
2021/08/31 06:05:38;;;;;;;10.02;7.22;;;;;;;12.91;100.00;96606.94;5067916;28;20454;-78
2021/08/31 06:08:04;;;;;;;11.03;7.20;;;;;;;13.03;100.00;96607.41;5087832;28;20074;-79
2021/08/31 06:10:30;;;;;;;11.65;7.75;;;;;;;13.13;100.00;96601.97;5072792;28;20032;-80
2021/08/31 06:13:00;;;;;;;10.48;7.38;;;;;;;13.14;100.00;96601.78;5071361;28;20036;-78
2021/08/31 06:15:26;;;;;;;11.55;7.50;;;;;;;13.24;100.00;96609.56;5073650;28;20036;-78
2021/08/31 06:17:52;;;;;;;10.00;7.20;;;;;;;13.20;100.00;96605.59;5056905;28;20474;-78
2021/08/31 06:20:17;;;;;;;10.48;8.50;;;;;;;13.31;100.00;96607.09;5090482;28;20059;-79
2021/08/31 06:22:44;;;;;;;12.05;7.45;;;;;;;13.37;100.00;96604.59;5082785;28;20070;-79
2021/08/31 06:25:10;;;;;;;9.57;7.03;;;;;;;13.42;100.00;96602.31;5076486;28;20032;-78
2021/08/31 06:27:36;;;;;;;11.10;7.05;;;;;;;13.56;100.00;96613.19;5080004;28;20035;-78
2021/08/31 06:30:02;;;;;;;11.25;6.88;;;;;;;13.62;100.00;96620.44;5067926;28;20097;-78
2021/08/31 06:32:28;;;;;;;11.23;6.93;;;;;;;13.69;100.00;96626.69;5066525;28;20168;-79
2021/08/31 06:34:53;;;;;;;10.00;7.40;;;;;;;13.58;100.00;96621.75;5082931;28;20051;-79
2021/08/31 06:37:19;;;;;;;11.07;6.97;;;;;;;13.66;100.00;96624.38;5066864;28;20029;-78
2021/08/31 06:39:45;;;;;;;10.82;7.47;;;;;;;13.57;100.00;96615.63;5086037;28;20040;-78
2021/08/31 06:42:10;;;;;;;12.52;7.28;;;;;;;13.65;100.00;96614.81;5080503;28;20028;-79
2021/08/31 06:44:36;;;;;;;12.05;8.32;;;;;;;13.73;100.00;96609.50;5075124;28;20029;-78
2021/08/31 06:47:02;;;;;;;11.95;7.50;;;;;;;13.87;100.00;96615.91;5080918;28;20052;-78
2021/08/31 06:49:28;;;;;;;11.18;7.20;;;;;;;13.99;100.00;96613.72;5088156;28;20028;-78
2021/08/31 06:51:53;;;;;;;9.57;6.95;;;;;;;14.06;100.00;96617.31;5079605;28;20020;-77
2021/08/31 06:54:19;;;;;;;10.77;6.40;;;;;;;14.31;100.00;96613.56;5078663;28;20032;-77
2021/08/31 06:56:45;;;;;;;8.65;6.22;;;;;;;14.37;100.00;96615.50;5078962;28;20028;-77
2021/08/31 06:59:10;;;;;;;9.40;6.47;;;;;;;14.39;100.00;96629.41;5084831;28;20123;-77
2021/08/31 07:01:36;;;;;;;9.23;6.57;;;;;;;14.38;100.00;96633.06;5081223;28;20040;-77
2021/08/31 07:04:03;;;;;;;10.20;7.05;;;;;;;14.34;100.00;96629.09;5075659;28;20059;-76
2021/08/31 07:06:29;;;;;;;12.48;7.25;;;;;;;14.30;100.00;96629.63;5071198;28;20095;-77
2021/08/31 07:08:55;;;;;;;12.05;7.25;;;;;;;14.25;100.00;96630.16;5076424;28;20509;-77
2021/08/31 07:11:21;;;;;;;16.80;12.50;;;;;;;14.21;100.00;96636.75;5074540;28;20077;-77
2021/08/31 07:13:47;;;;;;;10.27;7.35;;;;;;;14.40;100.00;96627.59;5049930;28;20090;-76
2021/08/31 07:16:12;;;;;;;8.88;6.65;;;;;;;14.33;100.00;96630.09;5075843;28;20125;-77
2021/08/31 07:18:38;;;;;;;11.07;7.00;;;;;;;14.50;100.00;96637.94;5075375;28;20489;-77
2021/08/31 07:21:04;;;;;;;9.80;5.90;;;;;;;14.75;100.00;96633.34;5084752;28;20032;-76
2021/08/31 07:23:29;;;;;;;8.45;6.05;;;;;;;15.02;100.00;96629.34;5059586;28;20029;-77
2021/08/31 07:25:55;;;;;;;13.07;6.47;;;;;;;15.36;100.00;96642.19;5076787;28;20095;-76
2021/08/31 07:28:21;;;;;;;10.15;5.90;;;;;;;15.55;98.97;96635.53;5056925;28;20031;-77
2021/08/31 07:30:47;;;;;;;11.90;5.88;;;;;;;15.28;100.00;96642.22;5079166;28;20024;-77
2021/08/31 07:33:12;;;;;;;8.32;5.72;;;;;;;15.44;98.22;96641.28;5080552;28;20027;-77
2021/08/31 07:35:39;;;;;;;9.23;5.45;;;;;;;15.57;98.74;96647.59;5074498;28;20005;-76
2021/08/31 07:38:05;;;;;;;8.75;4.95;;;;;;;15.47;98.09;96651.53;5080164;28;20131;-78
2021/08/31 07:40:32;;;;;;;10.77;5.78;;;;;;;15.36;97.76;96658.09;5072356;28;20043;-77
2021/08/31 07:42:58;;;;;;;12.02;6.13;;;;;;;14.99;97.99;96654.41;5082037;28;20036;-77
2021/08/31 07:45:24;;;;;;;10.15;5.13;;;;;;;15.10;95.97;96663.75;5065290;28;20112;-77
2021/08/31 07:47:50;;;;;;;9.65;5.68;;;;;;;15.23;97.60;96663.16;5070310;28;20032;-77
2021/08/31 07:50:16;;;;;;;10.05;5.32;;;;;;;15.17;96.59;96666.50;5083724;28;20028;-76
2021/08/31 07:52:42;;;;;;;8.65;5.38;;;;;;;15.43;96.54;96669.63;5085906;28;20031;-76
2021/08/31 07:55:09;;;;;;;7.35;5.00;;;;;;;15.29;95.97;96668.56;5079576;28;20047;-77
2021/08/31 07:57:36;;;;;;;8.20;4.82;;;;;;;15.44;96.11;96673.09;5073857;28;20035;-77
2021/08/31 08:00:07;;;;;;;7.25;4.97;;;;;;;15.65;95.09;96665.25;5081569;28;20024;-76
2021/08/31 08:02:34;;;;;;;7.53;4.88;;;;;;;15.65;93.43;96667.91;5088859;28;20066;-76
2021/08/31 08:05:05;;;;;;;7.93;5.25;;;;;;;15.74;92.96;96661.56;5093374;28;20047;-77
2021/08/31 08:07:31;;;;;;;10.68;5.45;;;;;;;16.01;92.76;96664.59;5085028;28;20023;-75
2021/08/31 08:09:57;;;;;;;9.30;4.63;;;;;;;16.13;90.08;96672.91;5083510;28;20473;-76
2021/08/31 08:12:23;;;;;;;8.07;5.28;;;;;;;16.17;88.63;96668.91;5082304;28;20028;-76
2021/08/31 08:14:49;;;;;;;8.63;4.75;;;;;;;16.14;90.69;96672.75;5054736;28;20036;-77
2021/08/31 08:17:17;;;;;;;10.93;6.90;;;;;;;16.02;90.77;96687.47;5068240;28;20039;-78
2021/08/31 08:19:42;;;;;;;8.65;6.25;;;;;;;15.79;92.06;96683.06;5087256;28;20027;-78
2021/08/31 08:22:08;;;;;;;7.82;4.53;;;;;;;15.97;90.45;96680.06;5083934;28;20314;-77
2021/08/31 08:24:34;;;;;;;9.65;5.68;;;;;;;15.58;90.66;96690.84;5051670;28;20393;-78
2021/08/31 08:27:00;;;;;;;6.05;3.65;;;;;;;16.15;89.46;96686.84;5072899;28;20028;-76
2021/08/31 08:29:26;;;;;;;8.30;4.68;;;;;;;16.32;90.00;96696.25;5073757;28;20023;-78
2021/08/31 08:31:52;;;;;;;10.15;5.35;;;;;;;16.22;88.44;96693.88;5076744;28;20081;-77
2021/08/31 08:34:18;;;;;;;9.75;5.13;;;;;;;16.71;86.58;96689.81;5071228;28;20038;-78
2021/08/31 08:36:44;;;;;;;8.68;6.18;;;;;;;16.61;87.17;96686.63;5080724;28;20552;-77
2021/08/31 08:39:10;;;;;;;7.28;5.13;;;;;;;16.20;90.53;96695.91;5081877;28;20056;-77
2021/08/31 08:41:36;;;;;;;8.60;4.72;;;;;;;15.93;88.84;96688.56;5075184;28;20039;-77
2021/08/31 08:44:02;;;;;;;7.70;4.93;;;;;;;15.89;88.72;96693.38;5061268;28;20020;-78
2021/08/31 08:46:28;;;;;;;7.30;4.85;;;;;;;15.83;89.81;96695.94;5064331;28;20029;-77
2021/08/31 08:48:56;;;;;;;9.32;4.20;;;;;;;15.85;88.91;96693.94;5058901;28;20024;-76
2021/08/31 08:51:22;;;;;;;8.73;5.18;;;;;;;15.71;89.80;96703.53;5073882;28;20036;-77
2021/08/31 08:53:48;;;;;;;6.95;4.43;;;;;;;15.85;89.43;96696.59;5067519;28;20039;-75
2021/08/31 08:56:14;;;;;;;10.40;4.93;;;;;;;15.84;89.01;96695.78;5062537;28;20029;-78
2021/08/31 08:58:40;;;;;;;8.60;4.65;;;;;;;15.85;90.63;96709.84;5067142;28;20036;-78
2021/08/31 09:01:08;;;;;;;10.38;5.63;;;;;;;15.97;88.56;96705.78;5076485;28;20032;-78
2021/08/31 09:03:36;;;;;;;10.32;7.25;;;;;;;16.08;89.30;96707.97;5076787;28;20023;-78
2021/08/31 09:06:11;;;;;;;8.25;4.85;;;;;;;15.68;90.82;96719.78;5074740;28;20028;-77
2021/08/31 09:08:53;;;;;;;9.05;5.18;;;;;;;15.39;92.21;96723.13;5071815;28;20032;-77
2021/08/31 09:11:45;;;;;;;8.93;5.23;;;;;;;15.67;92.21;96726.94;5075610;28;20071;-78
2021/08/31 09:14:30;;;;;;;9.32;4.55;;;;;;;15.56;91.80;96727.31;5053280;28;20063;-77
2021/08/31 09:17:06;;;;;;;8.70;4.63;;;;;;;15.49;90.92;96718.41;5047518;28;20025;-78
2021/08/31 09:19:40;;;;;;;9.52;4.43;;;;;;;15.32;90.10;96721.22;5076800;28;20696;-78
2021/08/31 09:22:25;;;;;;;7.82;4.50;;;;;;;15.40;90.30;96736.22;5076091;28;20032;-78
2021/08/31 09:25:02;;;;;;;11.73;4.72;;;;;;;15.12;90.90;96732.44;5069641;28;20485;-77
2021/08/31 09:27:48;;;;;;;8.52;5.28;;;;;;;15.22;91.95;96740.97;5081424;28;20482;-77
2021/08/31 09:30:23;;;;;;;6.85;4.30;;;;;;;15.23;91.57;96735.50;5077598;28;20414;-77
2021/08/31 09:33:07;;;;;;;9.65;5.00;;;;;;;14.99;91.53;96748.88;5052076;28;20454;-78
2021/08/31 09:35:37;;;;;;;8.73;4.60;;;;;;;14.97;92.43;96741.13;5073574;28;20706;-78
2021/08/31 09:38:06;;;;;;;8.63;3.83;;;;;;;15.01;92.94;96736.31;5073049;28;20059;-78
2021/08/31 09:40:37;;;;;;;6.97;4.05;;;;;;;15.04;92.34;96741.25;5064768;28;20030;-78
2021/08/31 09:43:12;;;;;;;7.63;4.55;;;;;;;15.03;92.73;96739.63;5064637;28;20717;-77
2021/08/31 09:45:40;;;;;;;7.22;4.78;;;;;;;15.23;92.11;96740.00;5063024;28;20062;-78
2021/08/31 09:48:09;;;;;;;6.95;4.25;;;;;;;15.33;92.26;96743.25;5061999;28;20032;-78
2021/08/31 09:50:45;;;;;;;9.85;4.20;;;;;;;15.47;91.68;96741.63;5067568;28;20505;-80
2021/08/31 09:53:18;;;;;;;8.18;4.60;;;;;;;15.59;90.77;96745.50;5077736;28;20101;-77
2021/08/31 09:55:50;;;;;;;11.07;5.97;;;;;;;15.74;90.60;96742.94;5059792;28;20040;-77
2021/08/31 09:58:24;;;;;;;8.18;4.40;;;;;;;15.59;90.33;96750.81;5057465;28;20041;-78
2021/08/31 10:00:52;;;;;;;9.60;5.18;;;;;;;15.64;88.74;96747.63;5049912;28;20032;-78
2021/08/31 10:03:19;;;;;;;5.82;4.05;;;;;;;15.73;88.62;96747.44;5055491;28;20032;-78
2021/08/31 10:05:47;;;;;;;7.00;3.90;;;;;;;16.01;86.31;96738.88;5071288;28;20490;-77
2021/08/31 10:08:14;;;;;;;7.82;4.43;;;;;;;15.75;86.06;96753.34;5078037;28;20392;-79
2021/08/31 10:10:43;;;;;;;7.25;4.22;;;;;;;15.87;87.10;96742.34;5058702;28;20025;-77
2021/08/31 10:13:12;;;;;;;7.22;4.40;;;;;;;15.93;85.21;96746.94;5082793;28;20491;-78
2021/08/31 10:15:46;;;;;;;9.65;5.93;;;;;;;16.47;84.95;96742.19;5070672;28;20119;-77
2021/08/31 10:18:14;;;;;;;7.32;4.55;;;;;;;16.57;83.66;96741.13;5053078;28;20035;-79
2021/08/31 10:20:46;;;;;;;7.90;3.78;;;;;;;16.81;82.13;96747.97;5057402;28;20442;-78
2021/08/31 10:23:28;;;;;;;6.15;4.35;;;;;;;16.90;80.60;96744.19;5069864;28;20032;-78
2021/08/31 10:26:25;;;;;;;6.35;3.95;;;;;;;16.91;81.05;96748.50;5064018;28;20487;-77
2021/08/31 10:29:12;;;;;;;6.85;3.95;;;;;;;17.97;75.51;96746.91;5076495;28;20096;-79
2021/08/31 10:31:38;;;;;;;5.65;3.33;;;;;;;18.99;72.93;96740.97;5053906;28;20028;-78
2021/08/31 10:34:37;;;;;;;6.30;4.15;;;;;;;20.01;69.03;96741.75;5077270;28;20036;-77
2021/08/31 10:37:13;;;;;;;7.18;3.65;;;;;;;19.89;68.40;96736.22;5077801;28;20381;-79
2021/08/31 10:39:43;;;;;;;7.22;3.75;;;;;;;19.96;67.77;96734.38;5079689;28;20035;-80
2021/08/31 10:42:30;;;;;;;6.78;3.78;;;;;;;19.71;68.26;96736.00;5077233;28;20088;-79
2021/08/31 10:44:57;;;;;;;11.35;7.25;;;;;;;19.59;68.29;96741.13;5074156;28;20028;-79
2021/08/31 10:47:33;;;;;;;7.20;4.25;;;;;;;19.54;69.22;96744.38;5056487;28;20048;-79
2021/08/31 10:49:59;;;;;;;5.45;3.50;;;;;;;18.77;69.60;96742.09;5071715;28;20032;-79
2021/08/31 10:52:50;;;;;;;6.57;3.65;;;;;;;18.77;72.47;96747.44;5072707;28;20074;-78
2021/08/31 10:55:19;;;;;;;7.57;3.33;;;;;;;18.34;76.32;96756.41;5054002;28;20071;-78
2021/08/31 10:57:45;;;;;;;5.93;4.20;;;;;;;17.90;78.92;96759.34;5081224;28;20028;-78
2021/08/31 11:00:17;;;;;;;6.28;3.65;;;;;;;17.98;76.41;96759.22;5081971;28;20035;-76
2021/08/31 11:02:46;;;;;;;5.82;3.58;;;;;;;17.93;77.06;96758.94;5080516;28;20050;-77
2021/08/31 11:05:20;;;;;;;5.80;3.53;;;;;;;17.77;76.69;96764.53;5072074;28;20385;-78
2021/08/31 11:07:48;;;;;;;5.50;3.50;;;;;;;17.71;76.94;96757.31;5081378;28;20116;-78
2021/08/31 11:10:25;;;;;;;6.55;4.18;;;;;;;17.72;78.52;96769.59;5076306;28;20020;-79
2021/08/31 11:13:06;;;;;;;7.80;4.43;;;;;;;17.65;78.89;96767.69;5075516;28;20397;-78
2021/08/31 11:15:32;;;;;;;6.85;4.10;;;;;;;17.81;77.84;96765.81;5066379;28;20029;-79
2021/08/31 11:17:58;;;;;;;5.75;3.45;;;;;;;17.71;74.62;96767.97;5053145;28;20031;-79
2021/08/31 11:20:28;;;;;;;6.50;3.88;;;;;;;17.48;74.10;96766.31;5055172;28;20039;-78
2021/08/31 11:23:03;;;;;;;5.22;3.50;;;;;;;17.51;72.91;96765.09;5069614;28;20723;-78
2021/08/31 11:25:32;;;;;;;7.70;3.90;;;;;;;17.46;71.90;96765.66;5059774;28;20036;-78